Latest Coastal Weather Observations for Stenhouse Bay

IDS60701

Issued at 12:41 am CDT Monday 5 December 2016 (issued every 10 minutes, with the page automatically refreshed every 10 minutes)

About coastal observations | Map of coastal stations | Coastal observations for SA | Marine services | Other Formats
Station Details ID: 022049 Name: STENHOUSE BAY Lat: -35.28 Lon: 136.94 Height: 42.0 m
Data from the previous 72 hours. | See also: Recent months at Stenhouse Bay
Date/Time
CDT
Temp
°C
Wind Pressure Rain since
9am
mm
Weather Cloud Vis
km
Sea
Height
m
Swell
Dir  Spd
kts
Gust
kts
hPa Trend Height
m
Period
s
Dir
05/12:30am 15.6 SW 14 21 1010.3 - 0.0 - - - - - - -
05/12:00am 15.5 SW 17 22 1010.3 - 0.0 - - - - - - -
 
Date/Time
CDT
Temp
°C
Wind Pressure Rain since
9am
mm
Weather Cloud Vis
km
Sea
Height
m
Swell
Dir  Spd
kts
Gust
kts
hPa Trend Height
m
Period
s
Dir
04/11:30pm 15.7 SW 16 23 1010.2 - 0.0 - - - - - - -
04/11:00pm 16.1 SW 14 23 1010.0 - 0.0 - - - - - - -
04/10:30pm 16.2 SW 16 22 1009.6 - 0.0 - - - - - - -
04/10:00pm 16.4 SW 15 22 1009.5 - 0.0 - - - - - - -
04/09:30pm 16.5 SW 18 24 1008.5 - 0.0 - - - - - - -
04/09:00pm 16.7 SW 15 19 1008.0 - 0.0 - - - - - - -
04/08:30pm 17.0 SW 22 29 1007.1 - 0.0 - - - - - - -
04/08:17pm 17.2 SW 20 31 1006.7 - 0.0 - - - - - - -
04/08:00pm 17.5 SW 19 27 1006.2 - 0.0 - - - - - - -
04/07:30pm 18.4 WSW 20 28 1005.2 - 0.0 - - - - - - -
04/07:00pm 20.1 WSW 19 26 1004.2 - 0.0 - - - - - - -
04/06:30pm 22.1 WSW 17 24 1003.7 - 0.0 - - - - - - -
04/06:09pm 22.7 W 17 28 1003.3 - 0.0 - - - - - - -
04/06:00pm 23.2 W 18 26 1003.3 - 0.0 - - - - - - -
04/05:30pm 26.0 W 19 31 1002.5 - 0.0 - - - - - - -
04/05:15pm 28.1 WNW 15 28 1002.3 - 0.0 - - - - - - -
04/05:00pm 29.1 NNW 13 18 1002.3 - 0.0 - - - - - - -
04/04:30pm 28.4 NNW 15 21 1002.1 - 0.0 - - - - - - -
04/04:00pm 28.1 NNW 17 25 1002.2 - 0.0 - - - - - - -
04/03:42pm 28.3 NNW 19 30 1002.2 - 0.0 - - - - - - -
04/03:30pm 27.9 NNW 21 29 1002.0 - 0.0 - - - - - - -
04/03:00pm 28.0 N 20 27 1001.8 - 0.0 - - - - - - -
04/02:30pm 29.0 N 21 27 1002.1 - 0.0 - - - - - - -
04/02:14pm 31.2 N 16 28 1002.2 - 0.0 - - - - - - -
04/02:00pm 31.7 N 15 20 1002.4 - 0.0 - - - - - - -
04/01:49pm 29.5 NNE 11 18 1002.7 - 0.0 - - - - - - -
04/01:30pm 24.2 E 6 9 1003.1 - 0.0 - - - - - - -
04/01:00pm 24.6 ESE 6 7 1003.7 - 0.0 - - - - - - -
04/12:30pm 24.5 S 6 8 1004.3 - 0.0 - - - - - - -
04/12:00pm 23.5 SSW 6 7 1004.9 - 0.0 - - - - - - -
04/11:30am 25.8 W 9 15 1005.8 - 0.0 - - - - - - -
04/11:08am 25.3 WNW 16 27 1006.2 - 0.0 - - - - - - -
04/11:00am 26.4 NNW 17 24 1006.1 - 0.0 - - - - - - -
04/10:30am 28.1 N 22 33 1005.0 - 0.0 - - - - - - -
04/10:00am 28.0 N 22 33 1004.6 - 0.0 - - - - - - -
04/09:31am 27.2 N 21 32 1004.7 - 0.0 - - - - - - -
04/09:30am 27.2 N 21 29 1004.7 - 0.0 - - - - - - -
04/09:10am 26.8 N 21 31 1004.8 - 0.0 - - - - - - -
04/09:00am 26.5 N 21 30 1005.0 - 0.0 - - - - - - -
04/08:58am 26.6 N 20 30 1005.1 - 0.0 - - - - - - -
04/08:30am 22.8 N 13 19 1005.3 - 0.0 - - - - - - -
04/08:00am 20.9 N 10 13 1005.4 - 0.0 - - - - - - -
04/07:30am 18.9 NNW 8 10 1006.0 - 0.0 - - - - - - -
04/07:00am 18.2 WNW 2 4 1006.1 - 0.0 - - - - - - -
04/06:30am 18.3 SE 6 7 1005.3 - 0.0 - - - - - - -
04/06:00am 18.4 E 6 7 1005.1 - 0.0 - - - - - - -
04/05:30am 18.6 NE 10 12 1004.6 - 0.0 - - - - - - -
04/05:00am 18.1 ENE 10 13 1004.8 - 0.0 - - - - - - -
04/04:30am 18.1 ENE 8 10 1005.0 - 0.0 - - - - - - -
04/04:00am 17.5 ENE 6 9 1005.7 - 0.0 - - - - - - -
04/03:30am 17.5 E 8 10 1005.9 - 0.0 - - - - - - -
04/03:00am 17.5 ENE 8 10 1006.3 - 0.0 - - - - - - -
04/02:30am 17.4 ENE 10 13 1006.6 - 0.0 - - - - - - -
04/02:00am 17.2 ENE 10 14 1007.2 - 0.0 - - - - - - -
04/01:30am 16.9 ENE 12 16 1007.5 - 0.0 - - - - - - -
04/01:00am 16.9 ENE 11 13 1008.3 - 0.0 - - - - - - -
04/12:30am 16.8 ENE 11 15 1008.5 - 0.0 - - - - - - -
04/12:00am 16.7 ENE 11 14 1008.9 - 0.0 - - - - - - -
 
Date/Time
CDT
Temp
°C
Wind Pressure Rain since
9am
mm
Weather Cloud Vis
km
Sea
Height
m
Swell
Dir  Spd
kts
Gust
kts
hPa Trend Height
m
Period
s
Dir
03/11:30pm 16.7 E 11 15 1009.2 - 0.0 - - - - - - -
03/11:00pm 17.1 E 12 15 1009.5 - 0.0 - - - - - - -
03/10:30pm 17.2 E 11 14 1009.8 - 0.0 - - - - - - -
03/10:00pm 17.1 E 8 11 1010.7 - 0.0 - - - - - - -
03/09:30pm 16.8 E 8 9 1010.9 - 0.0 - - - - - - -
03/09:00pm 16.4 SE 5 6 1011.1 - 0.0 - - - - - - -
03/08:30pm 16.7 SSE 4 5 1011.1 - 0.0 - - - - - - -
03/08:00pm 17.1 SSE 5 6 1011.2 - 0.0 - - - - - - -
03/07:30pm 17.6 SSE 6 7 1011.1 - 0.0 - - - - - - -
03/07:00pm 18.3 SSE 7 8 1010.9 - 0.0 - - - - - - -
03/06:30pm 18.9 S 8 9 1011.0 - 0.0 - - - - - - -
03/06:00pm 19.5 S 9 11 1010.9 - 0.0 - - - - - - -
03/05:30pm 19.9 S 8 10 1011.4 - 0.0 - - - - - - -
03/05:00pm 19.7 SSE 6 8 1011.2 - 0.0 - - - - - - -
03/04:30pm 20.4 ESE 6 7 1011.3 - 0.0 - - - - - - -
03/04:00pm 20.3 E 6 7 1011.5 - 0.0 - - - - - - -
03/03:30pm 20.1 E 7 8 1011.8 - 0.0 - - - - - - -
03/03:00pm 21.3 ESE 9 12 1011.6 - 0.0 - - - - - - -
03/02:30pm 21.3 ESE 8 10 1012.4 - 0.0 - - - - - - -
03/02:00pm 20.8 ESE 9 11 1012.7 - 0.0 - - - - - - -
03/01:30pm 20.6 ESE 9 12 1012.8 - 0.0 - - - - - - -
03/01:00pm 20.3 E 11 14 1013.0 - 0.0 - - - - - - -
03/12:30pm 19.6 E 10 13 1013.3 - 0.0 - - - - - - -
03/12:00pm 19.0 E 10 13 1013.6 - 0.0 - - - - - - -
03/11:30am 19.6 E 11 14 1013.4 - 0.0 - - - - - - -
03/11:00am 19.1 E 12 15 1013.7 - 0.0 - - - - - - -
03/10:30am 18.5 E 12 16 1013.8 - 0.0 - - - - - - -
03/10:00am 18.1 E 13 16 1013.8 - 0.0 - - - - - - -
03/09:30am 17.7 E 13 17 1014.2 - 0.0 - - - - - - -
03/09:00am 17.6 E 13 16 1014.2 - 0.0 - - - - - - -
03/08:30am 16.9 E 12 14 1014.2 - 0.0 - - - - - - -
03/08:00am 16.5 ESE 11 16 1014.2 - 0.0 - - - - - - -
03/07:30am 15.9 ESE 12 16 1014.2 - 0.0 - - - - - - -
03/07:00am 14.6 ESE 13 17 1014.1 - 0.0 - - - - - - -
03/06:30am 14.0 ESE 12 16 1014.1 - 0.0 - - - - - - -
03/06:00am 13.5 ESE 12 17 1013.5 - 0.0 - - - - - - -
03/05:30am 13.5 ESE 13 15 1013.6 - 0.0 - - - - - - -
03/05:00am 13.4 ESE 13 15 1013.3 - 0.0 - - - - - - -
03/04:30am 13.6 ESE 13 17 1013.3 - 0.0 - - - - - - -
03/04:00am 13.6 ESE 14 17 1013.4 - 0.0 - - - - - - -
03/03:30am 13.5 ESE 13 18 1013.5 - 0.0 - - - - - - -
03/03:00am 13.6 ESE 14 18 1013.5 - 0.0 - - - - - - -
03/02:30am 13.6 ESE 14 19 1013.8 - 0.0 - - - - - - -
03/02:00am 13.6 ESE 14 17 1014.2 - 0.0 - - - - - - -
03/01:30am 13.6 ESE 14 17 1014.3 - 0.0 - - - - - - -
03/01:00am 13.7 ESE 15 20 1014.4 - 0.0 - - - - - - -
03/12:30am 13.7 ESE 16 19 1014.7 - 0.0 - - - - - - -
03/12:00am 13.8 ESE 15 19 1015.2 - 0.0 - - - - - - -
 
Date/Time
CDT
Temp
°C
Wind Pressure Rain since
9am
mm
Weather Cloud Vis
km
Sea
Height
m
Swell
Dir  Spd
kts
Gust
kts
hPa Trend Height
m
Period
s
Dir
02/11:30pm 13.8 ESE 15 19 1015.4 - 0.0 - - - - - - -
02/11:00pm 13.9 ESE 15 19 1015.4 - 0.0 - - - - - - -
02/10:30pm 14.1 SE 15 20 1015.4 - 0.0 - - - - - - -
02/10:00pm 14.6 SE 14 19 1015.5 - 0.0 - - - - - - -
02/09:30pm 15.0 SE 13 18 1015.2 - 0.0 - - - - - - -
02/09:00pm 15.3 SE 6 8 1015.1 - 0.0 - - - - - - -
02/08:30pm 15.3 E 3 4 1015.1 - 0.0 - - - - - - -
02/08:00pm 16.1 E 3 5 1015.0 - 0.0 - - - - - - -
02/07:30pm 17.0 E 4 7 1014.6 - 0.0 - - - - - - -
02/07:00pm 18.1 S 6 8 1014.4 - 0.0 - - - - - - -
02/06:30pm 17.8 SSW 6 10 1014.6 - 0.0 - - - - - - -
02/06:00pm 17.9 SW 9 12 1014.4 - 0.0 - - - - - - -
02/05:30pm 17.7 SW 10 16 1014.3 - 0.0 - - - - - - -
02/05:00pm 18.4 SW 11 16 1014.3 - 0.0 - - - - - - -
02/04:30pm 17.8 SW 13 18 1014.6 - 0.0 - - - - - - -
02/04:00pm 18.1 SW 12 17 1014.7 - 0.0 - - - - - - -
02/03:30pm 18.3 SW 12 16 1014.6 - 0.0 - - - - - - -
02/03:00pm 18.6 SW 10 14 1014.8 - 0.0 - - - - - - -
02/02:30pm 19.0 SW 11 14 1014.9 - 0.0 - - - - - - -
02/02:00pm 18.7 SW 9 13 1015.1 - 0.0 - - - - - - -
02/01:30pm 18.9 SW 8 11 1015.2 - 0.0 - - - - - - -
02/01:00pm 19.3 S 6 8 1015.2 - 0.0 - - - - - - -
02/12:30pm 18.4 S 7 9 1015.3 - 0.0 - - - - - - -
02/12:00pm 18.5 S 7 9 1015.3 - 0.0 - - - - - - -
02/11:30am 18.0 S 7 9 1015.3 - 0.0 - - - - - - -
02/11:00am 18.1 SSW 7 10 1015.2 - 0.0 - - - - - - -
02/10:30am 18.0 S 7 10 1015.2 - 0.0 - - - - - - -
02/10:00am 17.0 SSW 9 13 1014.9 - 0.0 - - - - - - -
02/09:30am 16.5 S 10 13 1014.7 - 0.0 - - - - - - -
02/09:00am 16.6 S 10 13 1014.6 - 0.0 - - - - - - -
02/08:30am 15.8 S 10 13 1014.3 - 0.0 - - - - - - -
02/08:00am 15.7 S 9 13 1014.0 - 0.0 - - - - - - -
02/07:30am 15.1 S 14 17 1013.5 - 0.0 - - - - - - -
02/07:00am 15.0 S 8 11 1013.0 - 0.0 - - - - - - -
02/06:30am 15.0 SSW 8 11 1012.7 - 0.0 - - - - - - -
02/06:00am 15.1 SW 8 12 1012.5 - 0.0 - - - - - - -
02/05:30am 15.0 SSW 11 14 1012.0 - 0.0 - - - - - - -
02/05:00am 14.9 SSW 11 15 1011.7 - 0.0 - - - - - - -
02/04:30am 15.0 SSW 12 17 1011.5 - 0.0 - - - - - - -
02/04:00am 15.3 SSW 11 14 1011.4 - 0.0 - - - - - - -
02/03:30am 15.4 SSW 10 15 1011.1 - 0.0 - - - - - - -
02/03:00am 15.6 SW 7 11 1011.0 - 0.0 - - - - - - -
02/02:30am 15.4 SW 7 12 1010.8 - 0.0 - - - - - - -
02/02:00am 15.2 SW 7 9 1010.6 - 0.0 - - - - - - -
02/01:30am 15.0 SW 6 8 1010.7 - 0.0 - - - - - - -
02/01:00am 14.9 SSW 6 9 1010.7 - 0.0 - - - - - - -

Other Formats:

Comma delimited format used in spreadsheet applications
http://www.bom.gov.au/fwo/IDS60701/IDS60701.95806.axf

JavaScript Object Notation format (JSON) in row-major order
http://www.bom.gov.au/fwo/IDS60701/IDS60701.95806.json